Pagrindinis puslapis
METAR-TAF:

METAR-TAF

Oro uostai :

Santa Maria di Leuca

Castrignano del Capo, Italija

platuma: 39-49N, ilguma: 018-21E, Aukštis: 104 m

Dabartinis oras

Ataskaita buvo paskelbta 1 valandą ir 22 minutes, ne 17:55 UTC
Vėjas 6 kt iš Šiaurės
Temperatūra 21°C
Drėgmė 83%
Slėgis 1014 hPa
Matomumas 10 km arba daugiau
Išsisklaidę debesys ne aukštis 3000 ft
Su prošvaistėmis ne aukštis 5000 ft

METAR: LIBY 191755Z 36006KT 9999 SCT030 BKN050 21/18 Q1014 RMK BKN QUK / QUL / VIS MAR 10 KM VIS MIN 9999

Laikas: 21:17 (19:17 UTC)


TAF: trūkstamas

Orai ataskaitas ir orų prognozės (METAR, TAF).

turimą stotys yra geltonos ir raudonos taškus žemėlapyje.

Perkelti pele per norėdami pamatyti stoties vardą.

Tada spustelėkite, norėdami matyti oro stebėjimo ir prognozės.

Norėdami pakeisti žemėlapį: spustelėkite ant žalios mygtukų su juodo kryžiaus žemyn,; žalią mygtuką su brūkšneliu, jei norite nutolinti; arba žalių rodyklių gretimoms žemėlapius.


METAR-TAF: